createdAt,value
2018-05-02T00:00:19.079Z,1.85
2018-05-02T00:01:19.060Z,1.77
2018-05-02T00:02:19.339Z,1.80
2018-05-02T00:03:19.018Z,1.77
2018-05-02T00:04:19.041Z,1.82
2018-05-02T00:05:19.270Z,1.81
2018-05-02T00:06:19.193Z,1.80
2018-05-02T00:07:18.915Z,1.80
2018-05-02T00:08:18.896Z,1.75
2018-05-02T00:09:19.170Z,1.73
2018-05-02T00:10:20.295Z,1.75
2018-05-02T00:11:18.818Z,1.78
2018-05-02T00:12:18.796Z,1.62
2018-05-02T00:13:18.774Z,1.64
2018-05-02T00:14:18.752Z,1.64
2018-05-02T00:15:18.724Z,1.63
2018-05-02T00:16:19.048Z,1.57
2018-05-02T00:17:18.683Z,1.62
2018-05-02T00:18:18.652Z,1.53
2018-05-02T00:19:18.632Z,1.57
2018-05-02T00:20:18.601Z,1.57
2018-05-02T00:21:18.781Z,1.48
2018-05-02T00:22:18.862Z,1.48
2018-05-02T00:23:18.831Z,1.49
2018-05-02T00:24:18.515Z,1.44
2018-05-02T00:25:18.486Z,1.42
2018-05-02T00:26:18.464Z,1.46
2018-05-02T00:27:18.450Z,1.38
2018-05-02T00:28:18.665Z,1.31
2018-05-02T00:29:18.692Z,1.36
2018-05-02T00:30:18.360Z,1.21
2018-05-02T00:31:18.339Z,1.21
2018-05-02T00:32:18.319Z,1.35
2018-05-02T00:33:19.495Z,1.28
2018-05-02T00:34:18.317Z,1.38
2018-05-02T00:35:18.555Z,1.38
2018-05-02T00:36:18.213Z,1.44
2018-05-02T00:37:18.200Z,1.42
2018-05-02T00:38:18.170Z,1.38
2018-05-02T00:39:18.155Z,1.48
2018-05-02T00:40:18.277Z,1.41
2018-05-02T00:41:18.396Z,1.45
2018-05-02T00:42:18.070Z,1.56
2018-05-02T00:43:18.051Z,1.62
2018-05-02T00:44:18.032Z,1.64
2018-05-02T00:45:18.005Z,1.60
2018-05-02T00:46:19.241Z,1.57
2018-05-02T00:47:18.257Z,1.62
2018-05-02T00:48:17.927Z,1.63
2018-05-02T00:49:17.899Z,1.67
2018-05-02T00:50:17.874Z,1.63
2018-05-02T00:51:17.858Z,1.60
2018-05-02T00:52:17.879Z,1.60
2018-05-02T00:53:18.108Z,1.55
2018-05-02T00:54:17.779Z,1.46
2018-05-02T00:55:17.762Z,1.45
2018-05-02T00:56:17.729Z,1.48
2018-05-02T00:57:17.707Z,1.41
2018-05-02T00:58:17.938Z,1.39
2018-05-02T00:59:17.955Z,1.34
2018-05-02T01:00:17.630Z,1.31
2018-05-02T01:01:17.610Z,1.27
2018-05-02T01:02:18.779Z,1.24
2018-05-02T01:03:17.556Z,1.36
2018-05-02T01:04:17.588Z,1.36
2018-05-02T01:05:17.513Z,1.30
2018-05-02T01:06:17.787Z,1.20
2018-05-02T01:07:17.465Z,1.13
2018-05-02T01:08:17.431Z,1.24
2018-05-02T01:09:17.420Z,1.18
2018-05-02T01:10:17.439Z,1.17
2018-05-02T01:11:17.375Z,1.12
2018-05-02T01:12:17.333Z,0.98
2018-05-02T01:13:17.611Z,1.00
2018-05-02T01:14:17.289Z,0.98
2018-05-02T01:15:17.261Z,0.99
2018-05-02T01:16:17.288Z,1.00
2018-05-02T01:17:17.211Z,0.92
2018-05-02T01:18:17.188Z,0.90
2018-05-02T01:19:17.267Z,0.91
2018-05-02T01:20:17.437Z,0.88
2018-05-02T01:21:17.114Z,0.90
2018-05-02T01:22:17.142Z,0.81
2018-05-02T01:23:17.062Z,0.84
2018-05-02T01:24:17.046Z,0.81
2018-05-02T01:25:17.012Z,0.84
2018-05-02T01:26:16.989Z,0.76
2018-05-02T01:27:17.265Z,0.76
2018-05-02T01:28:16.989Z,0.82
2018-05-02T01:29:16.915Z,0.72
2018-05-02T01:30:16.899Z,0.74
2018-05-02T01:31:16.863Z,0.72
2018-05-02T01:32:16.842Z,0.76
2018-05-02T01:33:16.818Z,0.80
2018-05-02T01:34:17.139Z,0.82
2018-05-02T01:35:16.771Z,0.85
2018-05-02T01:36:16.753Z,0.90
2018-05-02T01:37:16.715Z,0.92
2018-05-02T01:38:16.699Z,1.00
2018-05-02T01:39:16.675Z,1.10
2018-05-02T01:40:16.689Z,1.08
2018-05-02T01:41:16.918Z,1.00
2018-05-02T01:42:16.599Z,1.03
2018-05-02T01:43:16.567Z,1.02
2018-05-02T01:44:16.545Z,1.08
2018-05-02T01:45:16.516Z,0.99
2018-05-02T01:46:17.744Z,1.08
2018-05-02T01:47:16.472Z,1.08
2018-05-02T01:48:16.448Z,1.10
2018-05-02T01:49:16.427Z,1.13
2018-05-02T01:50:16.403Z,1.17
2018-05-02T01:51:16.378Z,1.12
2018-05-02T01:52:16.404Z,1.17
2018-05-02T01:53:16.325Z,1.12
2018-05-02T01:54:16.602Z,1.12
2018-05-02T01:55:16.282Z,1.18
2018-05-02T01:56:16.252Z,1.13
2018-05-02T01:57:16.231Z,1.17
2018-05-02T01:58:16.252Z,1.16
2018-05-02T01:59:16.177Z,1.13
2018-05-02T02:00:16.459Z,1.09
2018-05-02T02:01:16.129Z,1.06
2018-05-02T02:02:16.103Z,1.12
2018-05-02T02:03:16.190Z,1.13
2018-05-02T02:04:16.110Z,1.08
2018-05-02T02:05:16.018Z,1.03
2018-05-02T02:06:15.996Z,1.02
2018-05-02T02:07:15.969Z,0.98
2018-05-02T02:08:15.950Z,0.90
2018-05-02T02:09:15.918Z,0.88
2018-05-02T02:10:15.951Z,0.87
2018-05-02T02:11:15.870Z,0.88
2018-05-02T02:12:16.147Z,0.98
2018-05-02T02:13:15.820Z,0.98
2018-05-02T02:14:15.801Z,0.94
2018-05-02T02:15:15.778Z,0.94
2018-05-02T02:16:15.853Z,0.88
2018-05-02T02:17:15.722Z,0.98
2018-05-02T02:18:16.000Z,0.96
2018-05-02T02:19:15.674Z,0.98
2018-05-02T02:20:15.643Z,1.03
2018-05-02T02:21:15.620Z,0.98
2018-05-02T02:22:15.746Z,1.09
2018-05-02T02:23:15.572Z,0.96
2018-05-02T02:24:15.848Z,1.03
2018-05-02T02:25:15.520Z,1.00
2018-05-02T02:26:15.500Z,0.99
2018-05-02T02:27:15.472Z,1.02
2018-05-02T02:28:15.594Z,1.00
2018-05-02T02:29:15.429Z,1.03
2018-05-02T02:30:15.400Z,1.02
2018-05-02T02:31:15.674Z,0.94
2018-05-02T02:32:15.349Z,0.98
2018-05-02T02:33:15.319Z,1.03
2018-05-02T02:34:15.455Z,0.96
2018-05-02T02:35:16.559Z,1.00
2018-05-02T02:36:15.259Z,1.03
2018-05-02T02:37:15.230Z,1.00
2018-05-02T02:38:15.504Z,0.98
2018-05-02T02:39:15.182Z,0.94
2018-05-02T02:40:15.255Z,0.88
2018-05-02T02:41:15.130Z,0.87
2018-05-02T02:42:15.112Z,0.91
2018-05-02T02:43:15.127Z,0.96
2018-05-02T02:44:15.051Z,0.98
2018-05-02T02:45:16.669Z,1.02
2018-05-02T02:46:16.252Z,1.06
2018-05-02T02:47:14.977Z,1.09
2018-05-02T02:48:14.952Z,1.09
2018-05-02T02:49:14.928Z,1.13
2018-05-02T02:50:14.904Z,1.08
2018-05-02T02:51:14.876Z,1.13
2018-05-02T02:52:16.408Z,1.23
2018-05-02T02:53:14.891Z,1.16
2018-05-02T02:54:14.809Z,1.27
2018-05-02T02:55:14.860Z,1.27
2018-05-02T02:56:14.752Z,1.34
2018-05-02T02:57:14.728Z,1.42
2018-05-02T02:58:14.755Z,1.42
2018-05-02T02:59:15.076Z,1.55
2018-05-02T03:00:14.652Z,1.66
2018-05-02T03:01:14.725Z,1.75
2018-05-02T03:02:14.602Z,1.73
2018-05-02T03:03:14.577Z,1.81
2018-05-02T03:04:14.601Z,1.80
2018-05-02T03:05:14.537Z,1.82
2018-05-02T03:07:14.778Z,1.80
2018-05-02T03:08:14.453Z,1.74
2018-05-02T03:09:14.430Z,1.64
2018-05-02T03:10:14.451Z,1.71
2018-05-02T03:11:14.376Z,1.64
2018-05-02T03:12:14.402Z,1.63
2018-05-02T03:13:14.688Z,1.63
2018-05-02T03:14:14.309Z,1.62
2018-05-02T03:15:14.283Z,1.59
2018-05-02T03:16:14.405Z,1.59
2018-05-02T03:17:14.225Z,1.63
2018-05-02T03:18:14.202Z,1.57
2018-05-02T03:19:14.487Z,1.64
2018-05-02T03:20:14.153Z,1.60
2018-05-02T03:21:14.126Z,1.55
2018-05-02T03:22:14.353Z,1.59
2018-05-02T03:23:14.068Z,1.46
2018-05-02T03:24:14.041Z,1.45
2018-05-02T03:25:14.318Z,1.48
2018-05-02T03:26:13.992Z,1.45
2018-05-02T03:27:13.977Z,1.45
2018-05-02T03:28:14.006Z,1.48
2018-05-02T03:29:13.922Z,1.63
2018-05-02T03:30:13.900Z,1.60
2018-05-02T03:31:14.170Z,1.63
2018-05-02T03:32:13.844Z,1.80
2018-05-02T03:33:13.823Z,1.89
2018-05-02T03:34:13.845Z,1.93
2018-05-02T03:35:13.777Z,1.93
2018-05-02T03:36:13.746Z,1.89
2018-05-02T03:37:14.023Z,1.93
2018-05-02T03:38:14.948Z,1.82
2018-05-02T03:39:13.680Z,1.93
2018-05-02T03:40:13.852Z,1.80
2018-05-02T03:41:13.623Z,1.80
2018-05-02T03:42:13.601Z,1.81
2018-05-02T03:43:13.874Z,1.80
2018-05-02T03:44:13.549Z,1.77
2018-05-02T03:45:13.530Z,1.84
2018-05-02T03:46:13.550Z,1.82
2018-05-02T03:47:13.481Z,1.89
2018-05-02T03:48:13.458Z,1.93
2018-05-02T03:49:13.433Z,1.87
2018-05-02T03:50:13.701Z,1.89
2018-05-02T03:51:13.384Z,1.85
2018-05-02T03:52:13.401Z,1.91
2018-05-02T03:53:13.328Z,1.84
2018-05-02T03:54:13.314Z,1.91
2018-05-02T03:55:13.284Z,1.84
2018-05-02T03:56:13.261Z,1.81
2018-05-02T03:57:13.542Z,1.74
2018-05-02T03:58:13.255Z,1.69
2018-05-02T03:59:13.182Z,1.66
2018-05-02T04:00:13.163Z,1.60
2018-05-02T04:01:13.133Z,1.59
2018-05-02T04:02:13.107Z,1.52
2018-05-02T04:03:13.084Z,1.48
2018-05-02T04:04:14.710Z,1.44
2018-05-02T04:05:13.035Z,1.36
2018-05-02T04:06:13.010Z,1.36
2018-05-02T04:07:12.992Z,1.38
2018-05-02T04:08:12.965Z,1.26
2018-05-02T04:09:13.041Z,1.27
2018-05-02T04:10:12.967Z,1.30
2018-05-02T04:11:13.192Z,1.30
2018-05-02T04:12:12.864Z,1.30
2018-05-02T04:13:12.845Z,1.24
2018-05-02T04:14:12.817Z,1.30
2018-05-02T04:15:12.996Z,1.34
2018-05-02T04:16:12.818Z,1.30
2018-05-02T04:17:13.749Z,1.30
2018-05-02T04:18:15.753Z,1.28
2018-05-02T04:19:14.664Z,1.34
2018-05-02T04:20:12.670Z,1.38
2018-05-02T04:21:12.656Z,1.36
2018-05-02T04:22:12.672Z,1.39
2018-05-02T04:23:12.686Z,1.39
2018-05-02T04:24:12.579Z,1.44
2018-05-02T04:25:12.856Z,1.41
2018-05-02T04:26:12.625Z,1.44
2018-05-02T04:27:12.503Z,1.44
2018-05-02T04:28:12.592Z,1.45
2018-05-02T04:29:12.510Z,1.44
2018-05-02T04:30:12.438Z,1.42
2018-05-02T04:31:12.403Z,1.49
2018-05-02T04:32:12.713Z,1.46
2018-05-02T04:33:12.470Z,1.48
2018-05-02T04:34:12.570Z,1.60
2018-05-02T04:35:12.333Z,1.74
2018-05-02T04:36:12.304Z,1.66
2018-05-02T04:37:12.262Z,1.80
2018-05-02T04:38:12.535Z,1.78
2018-05-02T04:39:12.226Z,1.91
2018-05-02T04:40:12.385Z,1.84
2018-05-02T04:41:12.224Z,1.99
2018-05-02T04:42:12.140Z,1.95
2018-05-02T04:43:12.120Z,1.91
2018-05-02T04:44:12.390Z,2.04
2018-05-02T04:45:12.068Z,2.00
2018-05-02T04:46:12.245Z,2.04
2018-05-02T04:47:12.034Z,2.11
2018-05-02T04:48:11.998Z,2.15
2018-05-02T04:49:11.979Z,2.28
2018-05-02T04:50:11.978Z,2.29
2018-05-02T04:51:11.942Z,2.40
2018-05-02T04:52:11.947Z,2.43
2018-05-02T04:53:11.878Z,2.40
2018-05-02T04:54:11.854Z,2.40
2018-05-02T04:55:11.833Z,2.47
2018-05-02T04:58:13.260Z,2.58
2018-05-02T04:59:12.707Z,2.58
2018-05-02T05:00:12.704Z,2.54
2018-05-02T05:01:11.684Z,2.69
2018-05-02T05:02:11.661Z,2.75
2018-05-02T05:03:11.645Z,2.72
2018-05-02T05:04:13.167Z,2.75
2018-05-02T05:05:11.608Z,2.82
2018-05-02T05:06:11.575Z,2.81
2018-05-02T05:07:11.552Z,2.91
2018-05-02T05:08:11.525Z,3.04
2018-05-02T05:09:11.504Z,3.05
2018-05-02T05:10:11.830Z,3.11
2018-05-02T05:11:12.004Z,3.18
2018-05-02T05:12:11.504Z,3.20
2018-05-02T05:13:11.411Z,3.20
2018-05-02T05:14:11.388Z,3.32
2018-05-02T05:15:11.480Z,3.32
2018-05-02T05:16:11.557Z,3.45
2018-05-02T05:17:11.617Z,3.51
2018-05-02T05:18:11.290Z,3.51
2018-05-02T05:19:11.282Z,3.45
2018-05-02T05:20:11.241Z,3.52
2018-05-02T05:21:11.234Z,3.51
2018-05-02T05:22:11.248Z,3.66
2018-05-02T05:23:11.182Z,3.72
2018-05-02T05:24:11.454Z,3.72
2018-05-02T05:25:11.133Z,3.73
2018-05-02T05:26:11.117Z,3.81
2018-05-02T05:27:11.092Z,3.99
2018-05-02T05:28:11.129Z,4.06
2018-05-02T05:29:11.041Z,4.10
2018-05-02T05:30:11.025Z,4.12
2018-05-02T05:31:11.311Z,4.18
2018-05-02T05:32:10.973Z,4.17
2018-05-02T05:33:10.958Z,4.20
2018-05-02T05:34:10.973Z,4.26
2018-05-02T05:35:10.994Z,4.23
2018-05-02T05:36:10.890Z,4.30
2018-05-02T05:37:10.859Z,4.41
2018-05-02T05:38:11.540Z,4.51
2018-05-02T05:40:12.059Z,4.59
2018-05-02T05:41:10.775Z,4.71
2018-05-02T05:42:10.746Z,4.71
2018-05-02T05:43:10.728Z,4.83
2018-05-02T05:44:10.809Z,4.88
2018-05-02T05:45:10.991Z,4.83
2018-05-02T05:46:10.709Z,4.91
2018-05-02T05:47:10.644Z,4.96
2018-05-02T05:48:10.627Z,4.98
2018-05-02T05:49:10.602Z,5.16
2018-05-02T05:50:10.579Z,5.24
2018-05-02T05:51:10.553Z,5.37
2018-05-02T05:52:10.881Z,5.39
2018-05-02T05:53:10.509Z,5.52
2018-05-02T05:54:10.608Z,5.55
2018-05-02T05:55:10.469Z,5.52
2018-05-02T05:56:10.504Z,5.70
2018-05-02T05:57:10.489Z,5.76
2018-05-02T05:58:10.451Z,5.87
2018-05-02T05:59:10.686Z,5.93
2018-05-02T06:00:10.359Z,5.97
2018-05-02T06:01:10.662Z,6.06
2018-05-02T06:02:10.380Z,6.16
2018-05-02T06:03:10.300Z,6.30
2018-05-02T06:04:10.284Z,6.47
2018-05-02T06:05:10.574Z,6.60
2018-05-02T06:06:10.242Z,6.65
2018-05-02T06:07:10.220Z,6.81
2018-05-02T06:08:10.301Z,6.88
2018-05-02T06:09:10.178Z,7.04
2018-05-02T06:10:10.149Z,7.24
2018-05-02T06:11:10.468Z,7.43
2018-05-02T06:12:10.309Z,7.47
2018-05-02T06:13:10.094Z,7.68
2018-05-02T06:14:10.122Z,7.80
2018-05-02T06:15:10.047Z,7.94
2018-05-02T06:16:10.025Z,8.04
2018-05-02T06:17:10.307Z,8.17
2018-05-02T06:18:09.989Z,8.31
2018-05-02T06:19:09.973Z,8.32
2018-05-02T06:20:11.211Z,8.42
2018-05-02T06:21:09.924Z,8.70
2018-05-02T06:22:09.916Z,8.89
2018-05-02T06:23:10.219Z,9.08
2018-05-02T06:24:09.870Z,9.29
2018-05-02T06:25:09.947Z,9.62
2018-05-02T06:26:09.952Z,9.73
2018-05-02T06:27:09.822Z,10.05
2018-05-02T06:28:09.799Z,10.08
2018-05-02T06:29:10.069Z,10.24
2018-05-02T06:30:09.774Z,10.26
2018-05-02T06:31:09.735Z,10.36
2018-05-02T06:32:09.814Z,10.48
2018-05-02T06:33:09.729Z,10.54
2018-05-02T06:34:09.680Z,10.61
2018-05-02T06:35:09.957Z,10.76
2018-05-02T06:36:09.658Z,10.75
2018-05-02T06:37:09.635Z,10.82
2018-05-02T06:38:09.672Z,11.01
2018-05-02T06:39:09.590Z,10.98
2018-05-02T06:40:09.575Z,11.12
2018-05-02T06:41:09.543Z,11.05
2018-05-02T06:42:09.831Z,11.09
2018-05-02T06:43:09.507Z,11.20
2018-05-02T06:44:09.542Z,11.33
2018-05-02T06:45:09.481Z,11.27
2018-05-02T06:46:09.457Z,11.36
2018-05-02T06:47:09.435Z,11.40
2018-05-02T06:48:09.420Z,11.41
2018-05-02T06:49:09.713Z,11.45
2018-05-02T06:50:09.434Z,11.46
2018-05-02T06:51:09.365Z,11.56
2018-05-02T06:52:09.349Z,11.70
2018-05-02T06:53:09.333Z,11.73
2018-05-02T06:54:09.311Z,11.71
2018-05-02T06:55:09.294Z,11.64
2018-05-02T06:56:09.628Z,11.82
2018-05-02T06:57:09.262Z,11.91
2018-05-02T06:58:09.243Z,11.88
2018-05-02T06:59:09.231Z,11.93
2018-05-02T07:00:10.125Z,12.04
2018-05-02T07:01:09.193Z,11.95
2018-05-02T07:02:14.807Z,12.00
2018-05-02T07:03:09.468Z,12.10
2018-05-02T07:04:09.318Z,12.15
2018-05-02T07:05:09.127Z,12.32
2018-05-02T07:06:09.112Z,12.29
2018-05-02T07:07:09.144Z,12.28
2018-05-02T07:08:09.128Z,12.35
2018-05-02T07:09:09.061Z,12.30
2018-05-02T07:10:09.347Z,12.47
2018-05-02T07:11:09.128Z,12.48
2018-05-02T07:12:09.022Z,12.62
2018-05-02T07:13:08.992Z,12.62
2018-05-02T07:14:09.037Z,12.73
2018-05-02T07:15:08.983Z,12.76
2018-05-02T07:16:09.101Z,12.71
2018-05-02T07:17:09.244Z,12.69
2018-05-02T07:18:08.932Z,12.73
2018-05-02T07:19:08.909Z,12.91
2018-05-02T07:20:08.987Z,13.04
2018-05-02T07:21:08.874Z,13.13
2018-05-02T07:22:08.852Z,13.16
2018-05-02T07:23:08.840Z,13.23
2018-05-02T07:24:09.224Z,13.43
2018-05-02T07:25:08.867Z,13.58
2018-05-02T07:26:08.891Z,13.80
2018-05-02T07:27:08.776Z,14.11
2018-05-02T07:28:08.805Z,14.59
2018-05-02T07:29:08.737Z,15.32
2018-05-02T07:31:08.719Z,15.38
2018-05-02T07:32:08.746Z,15.07
2018-05-02T07:33:08.819Z,15.30
2018-05-02T07:34:08.665Z,16.05
2018-05-02T07:35:08.669Z,15.83
2018-05-02T07:36:08.936Z,15.69
2018-05-02T07:37:08.630Z,16.14
2018-05-02T07:38:08.762Z,16.51
2018-05-02T07:39:08.603Z,16.55
2018-05-02T07:40:08.581Z,16.98
2018-05-02T07:41:08.588Z,16.69
2018-05-02T07:42:08.932Z,15.83
2018-05-02T07:43:08.548Z,16.37
2018-05-02T07:44:08.584Z,16.28
2018-05-02T07:45:08.525Z,16.43
2018-05-02T07:46:08.500Z,16.57
2018-05-02T07:47:08.506Z,16.76
2018-05-02T07:48:08.779Z,16.42
2018-05-02T07:49:08.472Z,16.05
2018-05-02T07:50:08.497Z,16.70
2018-05-02T07:51:08.435Z,17.09
2018-05-02T07:52:08.501Z,16.84
2018-05-02T07:53:08.484Z,16.64
2018-05-02T07:54:08.707Z,16.79
2018-05-02T07:55:08.386Z,16.36
2018-05-02T07:56:08.441Z,16.54
2018-05-02T07:57:08.366Z,15.88
2018-05-02T07:58:08.537Z,15.27
2018-05-02T07:59:08.356Z,15.85
2018-05-02T08:00:08.631Z,15.40
2018-05-02T08:01:08.324Z,15.05
2018-05-02T08:02:08.305Z,14.71
2018-05-02T08:03:08.299Z,15.11
2018-05-02T08:04:08.287Z,15.20
2018-05-02T08:05:08.287Z,15.05
2018-05-02T08:06:08.571Z,14.96
2018-05-02T08:07:08.316Z,15.25
2018-05-02T08:08:08.257Z,15.29
2018-05-02T08:09:08.233Z,15.32
2018-05-02T08:10:08.215Z,15.44
2018-05-02T08:11:08.306Z,15.90
2018-05-02T08:12:08.249Z,16.62
2018-05-02T08:13:08.923Z,16.90
2018-05-02T08:14:08.177Z,17.37
2018-05-02T08:15:08.246Z,16.51
2018-05-02T08:16:08.157Z,15.99
2018-05-02T08:17:08.131Z,15.58
2018-05-02T08:18:08.133Z,15.70
2018-05-02T08:19:08.163Z,15.38
2018-05-02T08:20:08.400Z,15.30
2018-05-02T08:21:08.142Z,15.50
2018-05-02T08:22:08.278Z,15.33
2018-05-02T08:23:08.066Z,15.90
2018-05-02T08:24:08.151Z,16.29
2018-05-02T08:25:08.201Z,16.26
2018-05-02T08:26:08.044Z,16.03
2018-05-02T08:27:08.363Z,15.58
2018-05-02T08:28:08.015Z,14.95
2018-05-02T08:29:08.015Z,15.36
2018-05-02T08:30:08.025Z,15.29
2018-05-02T08:31:09.242Z,15.78
2018-05-02T08:32:08.041Z,15.83
2018-05-02T08:33:07.955Z,15.56
2018-05-02T08:34:08.260Z,15.07
2018-05-02T08:35:07.937Z,14.56
2018-05-02T08:36:07.925Z,14.49
2018-05-02T08:38:09.328Z,14.09
2018-05-02T08:39:07.898Z,14.09
2018-05-02T08:40:07.924Z,13.97
2018-05-02T08:41:08.176Z,13.85
2018-05-02T08:42:08.251Z,14.12
2018-05-02T08:43:07.853Z,14.13
2018-05-02T08:44:07.894Z,14.15
2018-05-02T08:45:07.838Z,14.40
2018-05-02T08:46:07.817Z,14.74
2018-05-02T08:47:07.821Z,15.25
2018-05-02T08:48:08.097Z,15.08
2018-05-02T08:49:07.775Z,15.33
2018-05-02T08:50:07.873Z,15.32
2018-05-02T08:51:07.826Z,15.19
2018-05-02T08:52:07.743Z,15.32
2018-05-02T08:54:08.021Z,15.69
2018-05-02T08:55:07.712Z,15.81
2018-05-02T08:56:07.752Z,15.84
2018-05-02T08:57:07.688Z,16.47
2018-05-02T08:58:07.679Z,16.73
2018-05-02T08:59:07.683Z,16.90
2018-05-02T09:00:07.955Z,16.94
2018-05-02T09:01:07.662Z,16.43
2018-05-02T09:02:07.688Z,16.97
2018-05-02T09:03:07.634Z,16.90
2018-05-02T09:04:07.614Z,16.92
2018-05-02T09:05:07.607Z,15.85
2018-05-02T09:06:07.897Z,15.47
2018-05-02T09:07:07.590Z,15.15
2018-05-02T09:08:07.641Z,15.10
2018-05-02T09:09:07.577Z,15.32
2018-05-02T09:10:07.560Z,15.15
2018-05-02T09:11:07.552Z,15.47
2018-05-02T09:12:07.955Z,15.56
2018-05-02T09:13:07.533Z,16.06
2018-05-02T09:14:07.583Z,17.04
2018-05-02T09:15:07.510Z,17.65
2018-05-02T09:16:07.500Z,18.05
2018-05-02T09:17:07.495Z,18.45
2018-05-02T09:18:07.780Z,18.38
2018-05-02T09:19:07.478Z,17.88
2018-05-02T09:21:07.517Z,17.13
2018-05-02T09:22:07.446Z,17.24
2018-05-02T09:23:07.437Z,16.99
2018-05-02T09:24:07.730Z,16.98
2018-05-02T09:25:07.431Z,17.22
2018-05-02T09:26:07.459Z,17.52
2018-05-02T09:27:07.401Z,17.79
2018-05-02T09:28:07.393Z,18.23
2018-05-02T09:29:07.389Z,17.93
2018-05-02T09:30:07.683Z,18.09
2018-05-02T09:31:07.370Z,17.79
2018-05-02T09:32:07.418Z,17.63
2018-05-02T09:33:07.349Z,17.88
2018-05-02T09:34:07.349Z,17.75
2018-05-02T09:35:07.337Z,17.76
2018-05-02T09:36:07.645Z,17.27
2018-05-02T09:37:07.320Z,17.35
2018-05-02T09:38:07.372Z,16.84
2018-05-02T09:39:07.315Z,16.98
2018-05-02T09:40:07.296Z,16.87
2018-05-02T09:41:07.287Z,17.19
2018-05-02T09:42:07.298Z,17.30
2018-05-02T09:43:07.575Z,17.37
2018-05-02T09:44:07.429Z,18.11
2018-05-02T09:45:07.269Z,18.39
2018-05-02T09:46:07.247Z,18.41
2018-05-02T09:47:07.240Z,18.88
2018-05-02T09:48:07.232Z,19.35
2018-05-02T09:49:07.225Z,19.78
2018-05-02T09:50:07.680Z,19.00
2018-05-02T09:51:07.224Z,19.70
2018-05-02T09:52:07.248Z,18.83
2018-05-02T09:53:07.200Z,18.57
2018-05-02T09:54:08.515Z,18.98
2018-05-02T09:55:07.190Z,19.53
2018-05-02T09:56:09.635Z,20.05
2018-05-02T09:57:07.468Z,19.64
2018-05-02T09:58:07.218Z,19.96
2018-05-02T09:59:08.469Z,19.99
2018-05-02T10:00:07.183Z,20.04
2018-05-02T10:01:07.149Z,19.39
2018-05-02T10:02:07.198Z,20.15
2018-05-02T10:03:07.134Z,20.18
2018-05-02T10:04:07.457Z,20.08
2018-05-02T10:05:07.125Z,20.05
2018-05-02T10:06:07.116Z,19.13
2018-05-02T10:07:07.112Z,19.32
2018-05-02T10:08:07.164Z,18.61
2018-05-02T10:09:07.113Z,18.64
2018-05-02T10:10:07.094Z,18.74
2018-05-02T10:11:07.391Z,19.50
2018-05-02T10:12:07.099Z,19.26
2018-05-02T10:13:07.080Z,18.97
2018-05-02T10:14:07.225Z,19.32
2018-05-02T10:15:07.072Z,20.26
2018-05-02T10:16:07.064Z,20.52
2018-05-02T10:17:07.122Z,20.82
2018-05-02T10:19:07.060Z,20.12
2018-05-02T10:20:07.098Z,20.00
2018-05-02T10:21:07.090Z,19.79
2018-05-02T10:22:07.047Z,20.52
2018-05-02T10:23:07.041Z,20.95
2018-05-02T10:24:07.040Z,21.11
2018-05-02T10:25:07.027Z,20.33
2018-05-02T10:26:07.080Z,20.15
2018-05-02T10:27:07.023Z,20.70
2018-05-02T10:28:07.021Z,20.23
2018-05-02T10:29:07.024Z,20.48
2018-05-02T10:30:07.215Z,20.18
2018-05-02T10:31:07.306Z,19.96
2018-05-02T10:32:07.057Z,20.07
2018-05-02T10:33:08.208Z,19.38
2018-05-02T10:34:07.215Z,19.78
2018-05-02T10:35:07.205Z,20.46
2018-05-02T10:36:07.199Z,19.77
2018-05-02T10:37:08.502Z,19.92
2018-05-02T10:38:07.093Z,20.04
2018-05-02T10:39:07.192Z,20.71
2018-05-02T10:40:07.287Z,20.15
2018-05-02T10:41:07.188Z,19.52
2018-05-02T10:42:06.986Z,19.34
2018-05-02T10:43:07.539Z,19.53
2018-05-02T10:44:08.274Z,19.37
2018-05-02T10:45:07.194Z,19.31
2018-05-02T10:46:08.392Z,19.52
2018-05-02T10:47:07.166Z,20.37
2018-05-02T10:48:06.970Z,20.50
2018-05-02T10:49:07.451Z,20.30
2018-05-02T10:50:07.010Z,21.23
2018-05-02T10:51:08.155Z,21.01
2018-05-02T10:52:07.161Z,20.41
2018-05-02T10:53:06.957Z,20.08
2018-05-02T10:54:08.139Z,20.23
2018-05-02T10:55:07.254Z,19.41
2018-05-02T10:56:06.990Z,19.47
2018-05-02T10:57:06.924Z,19.49
2018-05-02T10:58:07.128Z,20.07
2018-05-02T10:59:06.917Z,19.70
2018-05-02T11:00:06.926Z,19.94
2018-05-02T11:01:07.221Z,19.94
2018-05-02T11:02:07.057Z,21.14
2018-05-02T11:03:06.911Z,22.11
2018-05-02T11:04:06.899Z,21.50
2018-05-02T11:05:06.897Z,21.00
2018-05-02T11:06:06.900Z,21.38
2018-05-02T11:07:07.199Z,21.45
2018-05-02T11:08:06.964Z,21.26
2018-05-02T11:09:06.881Z,21.11
2018-05-02T11:10:06.892Z,21.37
2018-05-02T11:11:06.877Z,21.55
2018-05-02T11:12:06.876Z,21.38
2018-05-02T11:13:07.187Z,21.58
2018-05-02T11:14:06.920Z,21.32
2018-05-02T11:15:06.867Z,19.84
2018-05-02T11:16:06.881Z,19.67
2018-05-02T11:17:06.879Z,19.71
2018-05-02T11:18:06.855Z,19.62
2018-05-02T11:19:07.158Z,19.79
2018-05-02T11:20:07.269Z,20.44
2018-05-02T11:21:06.851Z,20.19
2018-05-02T11:22:07.009Z,20.09
2018-05-02T11:23:07.554Z,19.35
2018-05-02T11:24:06.843Z,19.19
2018-05-02T11:25:06.833Z,19.09
2018-05-02T11:26:07.279Z,19.13
2018-05-02T11:27:06.819Z,19.59
2018-05-02T11:28:06.832Z,20.19
2018-05-02T11:29:06.890Z,20.90
2018-05-02T11:30:06.804Z,20.34
2018-05-02T11:31:06.804Z,20.25
2018-05-02T11:32:06.921Z,20.52
2018-05-02T11:33:07.092Z,19.81
2018-05-02T11:34:06.792Z,19.92
2018-05-02T11:35:06.783Z,19.60
2018-05-02T11:36:06.782Z,19.01
2018-05-02T11:37:06.774Z,19.16
2018-05-02T11:38:06.824Z,19.34
2018-05-02T11:39:06.769Z,19.56
2018-05-02T11:40:07.066Z,19.97
2018-05-02T11:41:06.816Z,20.22
2018-05-02T11:42:06.755Z,20.52
2018-05-02T11:43:06.770Z,20.29
2018-05-02T11:44:06.791Z,20.17
2018-05-02T11:45:06.739Z,20.05
2018-05-02T11:46:06.739Z,20.23
2018-05-02T11:47:06.730Z,19.71
2018-05-02T11:48:06.717Z,19.05
2018-05-02T11:49:06.710Z,18.74
2018-05-02T11:50:06.819Z,18.98
2018-05-02T11:51:06.706Z,18.54
2018-05-02T11:52:06.696Z,19.13
2018-05-02T11:53:08.233Z,20.05
2018-05-02T11:54:06.757Z,19.92
2018-05-02T11:55:06.701Z,20.05
2018-05-02T11:56:06.676Z,19.77
2018-05-02T11:57:06.678Z,19.44
2018-05-02T11:58:06.668Z,19.39
2018-05-02T11:59:06.668Z,19.30
2018-05-02T12:00:06.663Z,19.63
2018-05-02T12:01:06.651Z,19.35
2018-05-02T12:02:06.646Z,19.62
2018-05-02T12:03:06.639Z,19.60
2018-05-02T12:04:06.633Z,19.64
2018-05-02T12:05:06.625Z,19.52
2018-05-02T12:06:06.982Z,19.24
2018-05-02T12:07:06.618Z,19.35
2018-05-02T12:08:06.608Z,19.39
2018-05-02T12:09:06.606Z,19.93
2018-05-02T12:10:06.613Z,19.68
2018-05-02T12:11:06.596Z,19.75
2018-05-02T12:12:08.032Z,20.09
2018-05-02T12:13:06.887Z,20.42
2018-05-02T12:14:06.582Z,20.19
2018-05-02T12:15:06.571Z,19.67
2018-05-02T12:16:06.575Z,19.35
2018-05-02T12:17:06.560Z,19.49
2018-05-02T12:18:07.010Z,19.59
2018-05-02T12:19:06.920Z,20.68
2018-05-02T12:20:06.545Z,20.56
2018-05-02T12:21:06.634Z,20.46
2018-05-02T12:22:06.544Z,19.52
2018-05-02T12:23:06.543Z,19.77
2018-05-02T12:24:06.693Z,19.32
2018-05-02T12:25:08.134Z,19.22
2018-05-02T12:26:06.518Z,19.42
2018-05-02T12:27:06.516Z,19.96
2018-05-02T12:28:06.498Z,20.15
2018-05-02T12:29:06.494Z,19.30
2018-05-02T12:30:06.638Z,19.05
2018-05-02T12:31:06.792Z,18.54
2018-05-02T12:32:06.566Z,18.76
2018-05-02T12:33:06.506Z,18.93
2018-05-02T12:34:06.503Z,18.42
2018-05-02T12:35:06.478Z,18.51
2018-05-02T12:36:06.706Z,18.96
2018-05-02T12:37:06.752Z,19.60
2018-05-02T12:38:06.450Z,19.78
2018-05-02T12:39:06.561Z,19.64
2018-05-02T12:40:06.453Z,19.84
2018-05-02T12:41:06.434Z,19.05
2018-05-02T12:42:06.422Z,19.62
2018-05-02T12:43:06.715Z,19.42
2018-05-02T12:44:06.420Z,19.68
2018-05-02T12:45:06.710Z,19.04
2018-05-02T12:46:06.409Z,18.97
2018-05-02T12:47:07.044Z,19.26
2018-05-02T12:48:08.186Z,19.60
2018-05-02T12:49:06.683Z,20.05
2018-05-02T12:50:07.575Z,20.55
2018-05-02T12:51:06.368Z,21.03
2018-05-02T12:52:07.068Z,20.29
2018-05-02T12:53:06.365Z,19.26
2018-05-02T12:54:06.447Z,18.93
2018-05-02T12:55:06.348Z,18.58
2018-05-02T12:56:06.365Z,18.36
2018-05-02T12:57:06.338Z,18.30
2018-05-02T12:58:06.335Z,17.88
2018-05-02T12:59:06.323Z,17.96
2018-05-02T13:00:06.367Z,17.91
2018-05-02T13:01:06.661Z,17.81
2018-05-02T13:02:06.307Z,17.91
2018-05-02T13:03:06.303Z,18.39
2018-05-02T13:04:06.432Z,18.68
2018-05-02T13:05:06.363Z,18.41
2018-05-02T13:06:06.327Z,18.23
2018-05-02T13:07:06.646Z,18.13
2018-05-02T13:08:06.634Z,18.09
2018-05-02T13:09:06.512Z,18.21
2018-05-02T13:10:06.247Z,17.94
2018-05-02T13:11:06.251Z,18.21
2018-05-02T13:12:06.280Z,17.96
2018-05-02T13:13:06.232Z,17.93
2018-05-02T13:14:07.751Z,17.93